sensor_id;sensor_type;location;lat;lon;timestamp;P1;durP1;ratioP1;P2;durP2;ratioP2
21901;SDS011;11115;46.038;14.612;2023-04-24T00:00:57;1.67;;;1.10;;
21901;SDS011;11115;46.038;14.612;2023-04-24T00:03:29;1.80;;;1.20;;
21901;SDS011;11115;46.038;14.612;2023-04-24T00:06:00;3.10;;;1.10;;
21901;SDS011;11115;46.038;14.612;2023-04-24T00:08:43;1.40;;;1.30;;
21901;SDS011;11115;46.038;14.612;2023-04-24T00:11:15;1.75;;;1.30;;
21901;SDS011;11115;46.038;14.612;2023-04-24T00:13:44;1.17;;;0.93;;
21901;SDS011;11115;46.038;14.612;2023-04-24T00:16:16;1.40;;;1.13;;
21901;SDS011;11115;46.038;14.612;2023-04-24T00:18:55;1.17;;;1.07;;
21901;SDS011;11115;46.038;14.612;2023-04-24T00:21:23;1.43;;;1.33;;
21901;SDS011;11115;46.038;14.612;2023-04-24T00:23:53;2.07;;;1.40;;
21901;SDS011;11115;46.038;14.612;2023-04-24T00:26:23;1.85;;;1.10;;
21901;SDS011;11115;46.038;14.612;2023-04-24T00:28:55;1.07;;;0.80;;
21901;SDS011;11115;46.038;14.612;2023-04-24T00:31:26;1.33;;;1.23;;
21901;SDS011;11115;46.038;14.612;2023-04-24T00:33:57;1.92;;;1.42;;
21901;SDS011;11115;46.038;14.612;2023-04-24T00:36:31;2.53;;;1.60;;
21901;SDS011;11115;46.038;14.612;2023-04-24T00:39:03;1.73;;;1.40;;
21901;SDS011;11115;46.038;14.612;2023-04-24T00:41:36;2.37;;;1.60;;
21901;SDS011;11115;46.038;14.612;2023-04-24T00:44:05;1.40;;;1.00;;
21901;SDS011;11115;46.038;14.612;2023-04-24T00:46:36;1.60;;;1.50;;
21901;SDS011;11115;46.038;14.612;2023-04-24T00:49:21;1.73;;;1.47;;
21901;SDS011;11115;46.038;14.612;2023-04-24T00:51:58;2.10;;;1.20;;
21901;SDS011;11115;46.038;14.612;2023-04-24T00:54:36;1.43;;;1.30;;
21901;SDS011;11115;46.038;14.612;2023-04-24T00:57:12;1.73;;;1.27;;
21901;SDS011;11115;46.038;14.612;2023-04-24T00:59:41;1.50;;;1.40;;
21901;SDS011;11115;46.038;14.612;2023-04-24T01:02:11;1.60;;;1.20;;
21901;SDS011;11115;46.038;14.612;2023-04-24T01:04:54;4.13;;;1.70;;
21901;SDS011;11115;46.038;14.612;2023-04-24T01:07:33;1.60;;;1.23;;
21901;SDS011;11115;46.038;14.612;2023-04-24T01:10:09;1.67;;;1.30;;
21901;SDS011;11115;46.038;14.612;2023-04-24T01:12:40;2.78;;;1.20;;
21901;SDS011;11115;46.038;14.612;2023-04-24T01:15:10;4.07;;;1.17;;
21901;SDS011;11115;46.038;14.612;2023-04-24T01:17:52;1.83;;;1.30;;
21901;SDS011;11115;46.038;14.612;2023-04-24T01:20:22;2.67;;;1.38;;
21901;SDS011;11115;46.038;14.612;2023-04-24T01:22:59;2.23;;;1.47;;
21901;SDS011;11115;46.038;14.612;2023-04-24T01:25:29;1.57;;;1.47;;
21901;SDS011;11115;46.038;14.612;2023-04-24T01:28:08;1.30;;;1.20;;
21901;SDS011;11115;46.038;14.612;2023-04-24T01:30:41;3.23;;;1.20;;
21901;SDS011;11115;46.038;14.612;2023-04-24T01:33:13;1.65;;;1.48;;
21901;SDS011;11115;46.038;14.612;2023-04-24T01:35:46;3.17;;;1.60;;
21901;SDS011;11115;46.038;14.612;2023-04-24T01:38:31;1.17;;;1.07;;
21901;SDS011;11115;46.038;14.612;2023-04-24T01:41:02;2.55;;;1.70;;
21901;SDS011;11115;46.038;14.612;2023-04-24T01:43:31;1.80;;;1.40;;
21901;SDS011;11115;46.038;14.612;2023-04-24T01:46:04;2.50;;;1.67;;
21901;SDS011;11115;46.038;14.612;2023-04-24T01:48:51;2.90;;;1.80;;
21901;SDS011;11115;46.038;14.612;2023-04-24T01:51:52;4.23;;;1.87;;
21901;SDS011;11115;46.038;14.612;2023-04-24T01:54:23;1.77;;;1.58;;
21901;SDS011;11115;46.038;14.612;2023-04-24T01:56:55;2.20;;;1.40;;
21901;SDS011;11115;46.038;14.612;2023-04-24T01:59:28;4.47;;;2.60;;
21901;SDS011;11115;46.038;14.612;2023-04-24T02:02:02;3.47;;;2.20;;
21901;SDS011;11115;46.038;14.612;2023-04-24T02:04:39;3.10;;;2.30;;
21901;SDS011;11115;46.038;14.612;2023-04-24T02:07:14;4.80;;;2.37;;
21901;SDS011;11115;46.038;14.612;2023-04-24T02:09:44;5.00;;;2.35;;
21901;SDS011;11115;46.038;14.612;2023-04-24T02:12:17;2.83;;;1.63;;
21901;SDS011;11115;46.038;14.612;2023-04-24T02:14:51;3.77;;;1.80;;
21901;SDS011;11115;46.038;14.612;2023-04-24T02:17:24;1.67;;;1.20;;
21901;SDS011;11115;46.038;14.612;2023-04-24T02:19:59;1.70;;;1.60;;
21901;SDS011;11115;46.038;14.612;2023-04-24T02:22:44;1.67;;;1.50;;
21901;SDS011;11115;46.038;14.612;2023-04-24T02:25:17;1.17;;;1.07;;
21901;SDS011;11115;46.038;14.612;2023-04-24T02:27:58;1.47;;;1.20;;
21901;SDS011;11115;46.038;14.612;2023-04-24T02:30:34;0.83;;;0.83;;
21901;SDS011;11115;46.038;14.612;2023-04-24T02:33:02;1.43;;;1.27;;
21901;SDS011;11115;46.038;14.612;2023-04-24T02:35:36;1.67;;;1.13;;
21901;SDS011;11115;46.038;14.612;2023-04-24T02:38:06;1.58;;;0.98;;
21901;SDS011;11115;46.038;14.612;2023-04-24T02:40:37;1.40;;;1.30;;
21901;SDS011;11115;46.038;14.612;2023-04-24T02:43:09;1.80;;;1.50;;
21901;SDS011;11115;46.038;14.612;2023-04-24T02:45:54;3.30;;;1.47;;
21901;SDS011;11115;46.038;14.612;2023-04-24T02:48:26;3.67;;;1.30;;
21901;SDS011;11115;46.038;14.612;2023-04-24T02:50:57;1.33;;;1.23;;
21901;SDS011;11115;46.038;14.612;2023-04-24T02:53:32;4.73;;;1.30;;
21901;SDS011;11115;46.038;14.612;2023-04-24T02:56:07;1.87;;;0.97;;
21901;SDS011;11115;46.038;14.612;2023-04-24T02:58:51;1.90;;;1.47;;
21901;SDS011;11115;46.038;14.612;2023-04-24T03:01:24;1.70;;;1.33;;
21901;SDS011;11115;46.038;14.612;2023-04-24T03:03:58;1.17;;;1.07;;
21901;SDS011;11115;46.038;14.612;2023-04-24T03:06:43;1.73;;;1.30;;
21901;SDS011;11115;46.038;14.612;2023-04-24T03:09:23;2.10;;;1.90;;
21901;SDS011;11115;46.038;14.612;2023-04-24T03:11:54;1.97;;;1.50;;
21901;SDS011;11115;46.038;14.612;2023-04-24T03:14:31;2.77;;;1.60;;
21901;SDS011;11115;46.038;14.612;2023-04-24T03:17:12;1.27;;;0.90;;
21901;SDS011;11115;46.038;14.612;2023-04-24T03:19:47;1.57;;;1.33;;
21901;SDS011;11115;46.038;14.612;2023-04-24T03:22:20;1.43;;;1.33;;
21901;SDS011;11115;46.038;14.612;2023-04-24T03:24:53;2.80;;;2.08;;
21901;SDS011;11115;46.038;14.612;2023-04-24T03:27:38;17.17;;;4.83;;
21901;SDS011;11115;46.038;14.612;2023-04-24T03:30:29;17.53;;;6.40;;
21901;SDS011;11115;46.038;14.612;2023-04-24T03:33:00;9.40;;;2.77;;
21901;SDS011;11115;46.038;14.612;2023-04-24T03:35:49;12.50;;;3.73;;
21901;SDS011;11115;46.038;14.612;2023-04-24T03:38:22;5.30;;;3.07;;
21901;SDS011;11115;46.038;14.612;2023-04-24T03:41:24;8.98;;;3.85;;
21901;SDS011;11115;46.038;14.612;2023-04-24T03:44:16;7.03;;;3.60;;
21901;SDS011;11115;46.038;14.612;2023-04-24T03:46:48;3.78;;;1.88;;
21901;SDS011;11115;46.038;14.612;2023-04-24T03:49:23;4.40;;;2.23;;
21901;SDS011;11115;46.038;14.612;2023-04-24T03:51:55;1.90;;;1.52;;
21901;SDS011;11115;46.038;14.612;2023-04-24T03:54:28;3.30;;;1.70;;
21901;SDS011;11115;46.038;14.612;2023-04-24T03:57:05;2.97;;;2.10;;
21901;SDS011;11115;46.038;14.612;2023-04-24T03:59:41;2.67;;;1.80;;
21901;SDS011;11115;46.038;14.612;2023-04-24T04:02:26;1.87;;;1.23;;
21901;SDS011;11115;46.038;14.612;2023-04-24T04:05:10;2.90;;;1.70;;
21901;SDS011;11115;46.038;14.612;2023-04-24T04:07:46;2.90;;;1.60;;
21901;SDS011;11115;46.038;14.612;2023-04-24T04:10:22;3.67;;;1.63;;
21901;SDS011;11115;46.038;14.612;2023-04-24T04:12:57;2.00;;;1.60;;
21901;SDS011;11115;46.038;14.612;2023-04-24T04:15:34;2.50;;;1.70;;
21901;SDS011;11115;46.038;14.612;2023-04-24T04:18:12;1.77;;;1.40;;
21901;SDS011;11115;46.038;14.612;2023-04-24T04:20:43;5.90;;;1.77;;
21901;SDS011;11115;46.038;14.612;2023-04-24T04:23:20;1.50;;;1.40;;
21901;SDS011;11115;46.038;14.612;2023-04-24T04:26:03;1.60;;;1.50;;
21901;SDS011;11115;46.038;14.612;2023-04-24T04:31:25;2.10;;;1.40;;
21901;SDS011;11115;46.038;14.612;2023-04-24T04:34:02;1.47;;;1.27;;
21901;SDS011;11115;46.038;14.612;2023-04-24T04:36:35;2.63;;;1.73;;
21901;SDS011;11115;46.038;14.612;2023-04-24T04:39:33;1.93;;;1.80;;
21901;SDS011;11115;46.038;14.612;2023-04-24T04:42:04;2.58;;;1.95;;
21901;SDS011;11115;46.038;14.612;2023-04-24T04:44:44;1.77;;;1.23;;
21901;SDS011;11115;46.038;14.612;2023-04-24T04:47:29;1.97;;;1.47;;
21901;SDS011;11115;46.038;14.612;2023-04-24T04:50:07;1.90;;;1.50;;
21901;SDS011;11115;46.038;14.612;2023-04-24T04:52:39;1.50;;;1.40;;
21901;SDS011;11115;46.038;14.612;2023-04-24T04:55:26;1.60;;;1.47;;
21901;SDS011;11115;46.038;14.612;2023-04-24T04:58:10;1.47;;;1.30;;
21901;SDS011;11115;46.038;14.612;2023-04-24T05:00:58;1.47;;;1.37;;
21901;SDS011;11115;46.038;14.612;2023-04-24T05:03:36;4.23;;;2.73;;
21901;SDS011;11115;46.038;14.612;2023-04-24T05:06:13;6.23;;;4.47;;
21901;SDS011;11115;46.038;14.612;2023-04-24T05:08:44;5.83;;;3.30;;
21901;SDS011;11115;46.038;14.612;2023-04-24T05:11:27;3.40;;;2.60;;
21901;SDS011;11115;46.038;14.612;2023-04-24T05:14:10;3.57;;;2.50;;
21901;SDS011;11115;46.038;14.612;2023-04-24T05:16:54;4.43;;;2.63;;
21901;SDS011;11115;46.038;14.612;2023-04-24T05:19:27;7.57;;;2.83;;
21901;SDS011;11115;46.038;14.612;2023-04-24T05:22:03;4.77;;;2.70;;
21901;SDS011;11115;46.038;14.612;2023-04-24T05:24:45;2.50;;;2.30;;
21901;SDS011;11115;46.038;14.612;2023-04-24T05:27:42;3.87;;;2.60;;
21901;SDS011;11115;46.038;14.612;2023-04-24T05:30:19;4.50;;;2.17;;
21901;SDS011;11115;46.038;14.612;2023-04-24T05:32:54;4.07;;;2.37;;
21901;SDS011;11115;46.038;14.612;2023-04-24T05:35:30;10.77;;;2.50;;
21901;SDS011;11115;46.038;14.612;2023-04-24T05:38:09;4.63;;;2.30;;
21901;SDS011;11115;46.038;14.612;2023-04-24T05:40:41;4.50;;;2.15;;
21901;SDS011;11115;46.038;14.612;2023-04-24T05:43:25;4.50;;;2.63;;
21901;SDS011;11115;46.038;14.612;2023-04-24T05:46:04;3.23;;;2.40;;
21901;SDS011;11115;46.038;14.612;2023-04-24T05:48:47;4.60;;;2.73;;
21901;SDS011;11115;46.038;14.612;2023-04-24T05:51:30;3.20;;;2.10;;
21901;SDS011;11115;46.038;14.612;2023-04-24T05:54:00;4.23;;;2.70;;
21901;SDS011;11115;46.038;14.612;2023-04-24T05:56:40;5.13;;;2.20;;
21901;SDS011;11115;46.038;14.612;2023-04-24T05:59:15;2.87;;;2.17;;
21901;SDS011;11115;46.038;14.612;2023-04-24T06:01:53;2.53;;;1.90;;
21901;SDS011;11115;46.038;14.612;2023-04-24T06:04:31;3.57;;;2.30;;
21901;SDS011;11115;46.038;14.612;2023-04-24T06:07:16;3.83;;;2.40;;
21901;SDS011;11115;46.038;14.612;2023-04-24T06:09:50;2.80;;;1.77;;
21901;SDS011;11115;46.038;14.612;2023-04-24T06:12:21;4.33;;;2.73;;
21901;SDS011;11115;46.038;14.612;2023-04-24T06:15:05;4.47;;;2.50;;
21901;SDS011;11115;46.038;14.612;2023-04-24T06:17:52;4.97;;;2.63;;
21901;SDS011;11115;46.038;14.612;2023-04-24T06:20:22;4.70;;;3.03;;
21901;SDS011;11115;46.038;14.612;2023-04-24T06:23:02;4.68;;;2.95;;
21901;SDS011;11115;46.038;14.612;2023-04-24T06:25:34;4.95;;;3.60;;
21901;SDS011;11115;46.038;14.612;2023-04-24T06:28:07;8.77;;;4.10;;
21901;SDS011;11115;46.038;14.612;2023-04-24T06:30:54;4.07;;;2.63;;
21901;SDS011;11115;46.038;14.612;2023-04-24T06:33:27;5.10;;;3.00;;
21901;SDS011;11115;46.038;14.612;2023-04-24T06:36:12;3.63;;;2.93;;
21901;SDS011;11115;46.038;14.612;2023-04-24T06:38:44;6.97;;;2.67;;
21901;SDS011;11115;46.038;14.612;2023-04-24T06:41:25;4.30;;;2.20;;
21901;SDS011;11115;46.038;14.612;2023-04-24T06:43:58;5.87;;;3.37;;
21901;SDS011;11115;46.038;14.612;2023-04-24T06:46:27;7.97;;;3.23;;
21901;SDS011;11115;46.038;14.612;2023-04-24T06:49:01;4.43;;;3.30;;
21901;SDS011;11115;46.038;14.612;2023-04-24T06:51:29;9.00;;;4.60;;
21901;SDS011;11115;46.038;14.612;2023-04-24T06:54:07;6.57;;;3.87;;
21901;SDS011;11115;46.038;14.612;2023-04-24T06:56:36;5.50;;;4.13;;
21901;SDS011;11115;46.038;14.612;2023-04-24T07:01:54;7.80;;;4.63;;
21901;SDS011;11115;46.038;14.612;2023-04-24T07:04:26;9.70;;;3.35;;
21901;SDS011;11115;46.038;14.612;2023-04-24T07:06:57;7.70;;;4.57;;
21901;SDS011;11115;46.038;14.612;2023-04-24T07:09:33;6.03;;;3.10;;
21901;SDS011;11115;46.038;14.612;2023-04-24T07:12:09;6.63;;;3.40;;
21901;SDS011;11115;46.038;14.612;2023-04-24T07:14:39;5.40;;;3.30;;
21901;SDS011;11115;46.038;14.612;2023-04-24T07:17:24;4.93;;;3.23;;
21901;SDS011;11115;46.038;14.612;2023-04-24T07:19:59;11.57;;;3.63;;
21901;SDS011;11115;46.038;14.612;2023-04-24T07:22:29;4.43;;;3.45;;
21901;SDS011;11115;46.038;14.612;2023-04-24T07:25:03;4.53;;;3.40;;
21901;SDS011;11115;46.038;14.612;2023-04-24T07:28:01;4.77;;;3.07;;
21901;SDS011;11115;46.038;14.612;2023-04-24T07:30:36;4.43;;;2.90;;
21901;SDS011;11115;46.038;14.612;2023-04-24T07:33:08;5.37;;;3.13;;
21901;SDS011;11115;46.038;14.612;2023-04-24T07:35:42;7.30;;;2.67;;
21901;SDS011;11115;46.038;14.612;2023-04-24T07:38:13;7.83;;;2.90;;
21901;SDS011;11115;46.038;14.612;2023-04-24T07:40:55;4.37;;;2.70;;
21901;SDS011;11115;46.038;14.612;2023-04-24T07:43:35;3.87;;;3.37;;
21901;SDS011;11115;46.038;14.612;2023-04-24T07:46:06;3.70;;;2.77;;
21901;SDS011;11115;46.038;14.612;2023-04-24T07:48:36;7.60;;;3.40;;
21901;SDS011;11115;46.038;14.612;2023-04-24T07:51:11;10.30;;;4.13;;
21901;SDS011;11115;46.038;14.612;2023-04-24T07:53:42;8.63;;;3.67;;
21901;SDS011;11115;46.038;14.612;2023-04-24T07:56:19;7.43;;;3.53;;
21901;SDS011;11115;46.038;14.612;2023-04-24T07:59:00;6.00;;;3.27;;
21901;SDS011;11115;46.038;14.612;2023-04-24T08:01:33;5.37;;;3.03;;
21901;SDS011;11115;46.038;14.612;2023-04-24T08:04:14;7.22;;;3.20;;
21901;SDS011;11115;46.038;14.612;2023-04-24T08:06:47;11.10;;;2.73;;
21901;SDS011;11115;46.038;14.612;2023-04-24T08:09:20;4.68;;;2.78;;
21901;SDS011;11115;46.038;14.612;2023-04-24T08:11:54;4.67;;;2.70;;
21901;SDS011;11115;46.038;14.612;2023-04-24T08:14:27;5.70;;;2.97;;
21901;SDS011;11115;46.038;14.612;2023-04-24T08:17:01;5.23;;;3.10;;
21901;SDS011;11115;46.038;14.612;2023-04-24T08:19:34;5.80;;;3.00;;
21901;SDS011;11115;46.038;14.612;2023-04-24T08:22:09;8.57;;;4.97;;
21901;SDS011;11115;46.038;14.612;2023-04-24T08:24:54;5.93;;;4.40;;
21901;SDS011;11115;46.038;14.612;2023-04-24T08:27:28;5.10;;;3.07;;
21901;SDS011;11115;46.038;14.612;2023-04-24T08:30:03;2.13;;;1.90;;
21901;SDS011;11115;46.038;14.612;2023-04-24T08:32:47;3.80;;;2.07;;
21901;SDS011;11115;46.038;14.612;2023-04-24T08:35:19;5.40;;;2.13;;
21901;SDS011;11115;46.038;14.612;2023-04-24T08:37:53;5.27;;;3.70;;
21901;SDS011;11115;46.038;14.612;2023-04-24T08:40:30;4.17;;;2.40;;
21901;SDS011;11115;46.038;14.612;2023-04-24T08:43:06;2.60;;;2.00;;
21901;SDS011;11115;46.038;14.612;2023-04-24T08:48:12;2.90;;;1.93;;
21901;SDS011;11115;46.038;14.612;2023-04-24T08:51:02;2.33;;;1.67;;
21901;SDS011;11115;46.038;14.612;2023-04-24T08:53:39;2.93;;;1.63;;
21901;SDS011;11115;46.038;14.612;2023-04-24T08:56:17;2.90;;;2.00;;
21901;SDS011;11115;46.038;14.612;2023-04-24T08:59:03;3.13;;;2.10;;
21901;SDS011;11115;46.038;14.612;2023-04-24T09:02:55;3.53;;;2.47;;
21901;SDS011;11115;46.038;14.612;2023-04-24T09:05:52;2.10;;;1.80;;
21901;SDS011;11115;46.038;14.612;2023-04-24T09:08:24;3.23;;;2.20;;
21901;SDS011;11115;46.038;14.612;2023-04-24T09:10:58;2.83;;;1.50;;
21901;SDS011;11115;46.038;14.612;2023-04-24T09:13:31;2.87;;;2.10;;
21901;SDS011;11115;46.038;14.612;2023-04-24T09:16:13;1.70;;;1.60;;
21901;SDS011;11115;46.038;14.612;2023-04-24T09:18:46;1.63;;;1.53;;
21901;SDS011;11115;46.038;14.612;2023-04-24T09:21:21;1.50;;;1.33;;
21901;SDS011;11115;46.038;14.612;2023-04-24T09:24:00;2.73;;;2.07;;
21901;SDS011;11115;46.038;14.612;2023-04-24T09:26:37;3.40;;;2.43;;
21901;SDS011;11115;46.038;14.612;2023-04-24T09:29:07;1.73;;;1.63;;
21901;SDS011;11115;46.038;14.612;2023-04-24T09:31:38;4.10;;;1.77;;
21901;SDS011;11115;46.038;14.612;2023-04-24T09:34:11;3.90;;;2.00;;
21901;SDS011;11115;46.038;14.612;2023-04-24T09:36:43;3.33;;;2.13;;
21901;SDS011;11115;46.038;14.612;2023-04-24T09:39:14;2.73;;;1.67;;
21901;SDS011;11115;46.038;14.612;2023-04-24T09:44:22;1.93;;;1.63;;
21901;SDS011;11115;46.038;14.612;2023-04-24T09:47:16;2.87;;;2.23;;
21901;SDS011;11115;46.038;14.612;2023-04-24T09:49:49;2.00;;;1.70;;
21901;SDS011;11115;46.038;14.612;2023-04-24T09:52:20;2.88;;;1.58;;
21901;SDS011;11115;46.038;14.612;2023-04-24T09:54:54;2.40;;;2.20;;
21901;SDS011;11115;46.038;14.612;2023-04-24T09:57:55;3.17;;;2.03;;
21901;SDS011;11115;46.038;14.612;2023-04-24T10:00:35;4.57;;;2.20;;
21901;SDS011;11115;46.038;14.612;2023-04-24T10:03:11;2.10;;;1.67;;
21901;SDS011;11115;46.038;14.612;2023-04-24T10:06:01;2.20;;;2.00;;
21901;SDS011;11115;46.038;14.612;2023-04-24T10:08:40;6.33;;;2.20;;
21901;SDS011;11115;46.038;14.612;2023-04-24T10:11:25;2.43;;;2.20;;
21901;SDS011;11115;46.038;14.612;2023-04-24T10:13:59;4.00;;;1.70;;
21901;SDS011;11115;46.038;14.612;2023-04-24T10:16:31;2.05;;;1.80;;
21901;SDS011;11115;46.038;14.612;2023-04-24T10:19:05;2.67;;;1.90;;
21901;SDS011;11115;46.038;14.612;2023-04-24T10:24:12;8.70;;;2.13;;
21901;SDS011;11115;46.038;14.612;2023-04-24T10:26:49;4.00;;;2.43;;
21901;SDS011;11115;46.038;14.612;2023-04-24T10:29:34;6.23;;;1.60;;
21901;SDS011;11115;46.038;14.612;2023-04-24T10:34:47;3.90;;;3.00;;
21901;SDS011;11115;46.038;14.612;2023-04-24T10:37:18;2.23;;;2.03;;
21901;SDS011;11115;46.038;14.612;2023-04-24T10:39:53;3.33;;;2.07;;
21901;SDS011;11115;46.038;14.612;2023-04-24T10:42:34;3.42;;;2.63;;
21901;SDS011;11115;46.038;14.612;2023-04-24T10:45:06;3.30;;;2.43;;
21901;SDS011;11115;46.038;14.612;2023-04-24T10:47:56;2.37;;;1.83;;
21901;SDS011;11115;46.038;14.612;2023-04-24T10:53:28;2.80;;;2.53;;
21901;SDS011;11115;46.038;14.612;2023-04-24T10:56:07;6.67;;;1.93;;
21901;SDS011;11115;46.038;14.612;2023-04-24T10:58:43;3.43;;;1.93;;
21901;SDS011;11115;46.038;14.612;2023-04-24T11:01:30;2.57;;;1.90;;
21901;SDS011;11115;46.038;14.612;2023-04-24T11:04:09;3.97;;;1.77;;
21901;SDS011;11115;46.038;14.612;2023-04-24T11:06:56;2.50;;;1.93;;
21901;SDS011;11115;46.038;14.612;2023-04-24T11:09:35;1.80;;;1.67;;
21901;SDS011;11115;46.038;14.612;2023-04-24T11:12:10;2.93;;;2.67;;
21901;SDS011;11115;46.038;14.612;2023-04-24T11:17:36;5.23;;;2.60;;
21901;SDS011;11115;46.038;14.612;2023-04-24T11:20:16;3.50;;;1.73;;
21901;SDS011;11115;46.038;14.612;2023-04-24T11:23:11;3.77;;;1.80;;
21901;SDS011;11115;46.038;14.612;2023-04-24T11:25:52;10.63;;;2.53;;
21901;SDS011;11115;46.038;14.612;2023-04-24T11:29:08;2.00;;;1.67;;
21901;SDS011;11115;46.038;14.612;2023-04-24T11:31:49;2.60;;;1.93;;
21901;SDS011;11115;46.038;14.612;2023-04-24T11:34:21;5.53;;;2.63;;
21901;SDS011;11115;46.038;14.612;2023-04-24T11:36:54;5.13;;;2.10;;
21901;SDS011;11115;46.038;14.612;2023-04-24T11:39:36;2.80;;;2.00;;
21901;SDS011;11115;46.038;14.612;2023-04-24T11:42:06;3.40;;;1.90;;
21901;SDS011;11115;46.038;14.612;2023-04-24T11:44:39;3.33;;;2.93;;
21901;SDS011;11115;46.038;14.612;2023-04-24T11:47:27;2.67;;;2.13;;
21901;SDS011;11115;46.038;14.612;2023-04-24T11:49:58;4.43;;;3.10;;
21901;SDS011;11115;46.038;14.612;2023-04-24T11:52:28;3.27;;;2.23;;
21901;SDS011;11115;46.038;14.612;2023-04-24T11:55:03;8.73;;;2.70;;
21901;SDS011;11115;46.038;14.612;2023-04-24T11:57:55;2.63;;;2.33;;
21901;SDS011;11115;46.038;14.612;2023-04-24T12:00:29;7.90;;;3.00;;
21901;SDS011;11115;46.038;14.612;2023-04-24T12:03:19;4.63;;;2.80;;
21901;SDS011;11115;46.038;14.612;2023-04-24T12:06:07;4.13;;;2.20;;
21901;SDS011;11115;46.038;14.612;2023-04-24T12:08:37;2.30;;;1.73;;
21901;SDS011;11115;46.038;14.612;2023-04-24T12:11:08;3.17;;;1.60;;
21901;SDS011;11115;46.038;14.612;2023-04-24T12:13:42;2.10;;;1.80;;
21901;SDS011;11115;46.038;14.612;2023-04-24T12:16:15;3.93;;;1.90;;
21901;SDS011;11115;46.038;14.612;2023-04-24T12:18:44;4.43;;;1.57;;
21901;SDS011;11115;46.038;14.612;2023-04-24T12:21:31;2.70;;;1.63;;
21901;SDS011;11115;46.038;14.612;2023-04-24T12:24:05;3.43;;;1.83;;
21901;SDS011;11115;46.038;14.612;2023-04-24T12:26:41;3.33;;;1.67;;
21901;SDS011;11115;46.038;14.612;2023-04-24T12:29:11;4.40;;;1.90;;
21901;SDS011;11115;46.038;14.612;2023-04-24T12:32:00;3.43;;;1.73;;
21901;SDS011;11115;46.038;14.612;2023-04-24T12:34:32;1.90;;;1.70;;
21901;SDS011;11115;46.038;14.612;2023-04-24T12:37:10;2.63;;;1.63;;
21901;SDS011;11115;46.038;14.612;2023-04-24T12:40:09;2.03;;;1.50;;
21901;SDS011;11115;46.038;14.612;2023-04-24T12:42:50;7.03;;;1.40;;
21901;SDS011;11115;46.038;14.612;2023-04-24T12:45:24;1.93;;;1.60;;
21901;SDS011;11115;46.038;14.612;2023-04-24T12:47:59;1.93;;;1.70;;
21901;SDS011;11115;46.038;14.612;2023-04-24T12:50:43;3.80;;;1.93;;
21901;SDS011;11115;46.038;14.612;2023-04-24T12:53:18;7.60;;;2.50;;
21901;SDS011;11115;46.038;14.612;2023-04-24T12:55:56;2.93;;;2.23;;
21901;SDS011;11115;46.038;14.612;2023-04-24T12:58:26;3.80;;;1.87;;
21901;SDS011;11115;46.038;14.612;2023-04-24T13:01:10;2.53;;;1.60;;
21901;SDS011;11115;46.038;14.612;2023-04-24T13:03:46;3.33;;;1.70;;
21901;SDS011;11115;46.038;14.612;2023-04-24T13:06:33;2.37;;;1.37;;
21901;SDS011;11115;46.038;14.612;2023-04-24T13:09:12;2.13;;;1.63;;
21901;SDS011;11115;46.038;14.612;2023-04-24T13:11:46;1.97;;;1.37;;
21901;SDS011;11115;46.038;14.612;2023-04-24T13:14:16;4.33;;;1.50;;
21901;SDS011;11115;46.038;14.612;2023-04-24T13:16:44;1.83;;;1.67;;
21901;SDS011;11115;46.038;14.612;2023-04-24T13:19:15;2.93;;;1.80;;
21901;SDS011;11115;46.038;14.612;2023-04-24T13:21:45;3.07;;;1.87;;
21901;SDS011;11115;46.038;14.612;2023-04-24T13:24:29;3.20;;;2.23;;
21901;SDS011;11115;46.038;14.612;2023-04-24T13:27:06;4.20;;;2.03;;
21901;SDS011;11115;46.038;14.612;2023-04-24T13:29:43;2.73;;;2.33;;
21901;SDS011;11115;46.038;14.612;2023-04-24T13:32:15;2.83;;;2.03;;
21901;SDS011;11115;46.038;14.612;2023-04-24T13:39:50;4.47;;;2.77;;
21901;SDS011;11115;46.038;14.612;2023-04-24T13:42:29;4.73;;;2.90;;
21901;SDS011;11115;46.038;14.612;2023-04-24T13:45:13;3.03;;;2.07;;
21901;SDS011;11115;46.038;14.612;2023-04-24T13:47:51;3.97;;;2.07;;
21901;SDS011;11115;46.038;14.612;2023-04-24T13:50:38;2.10;;;1.83;;
21901;SDS011;11115;46.038;14.612;2023-04-24T13:53:13;3.20;;;1.90;;
21901;SDS011;11115;46.038;14.612;2023-04-24T13:55:45;3.87;;;2.07;;
21901;SDS011;11115;46.038;14.612;2023-04-24T13:58:17;3.63;;;2.10;;
21901;SDS011;11115;46.038;14.612;2023-04-24T14:00:48;4.83;;;2.37;;
21901;SDS011;11115;46.038;14.612;2023-04-24T14:05:57;2.90;;;1.57;;
21901;SDS011;11115;46.038;14.612;2023-04-24T14:08:38;1.70;;;1.43;;
21901;SDS011;11115;46.038;14.612;2023-04-24T14:11:12;2.73;;;1.77;;
21901;SDS011;11115;46.038;14.612;2023-04-24T14:13:42;1.93;;;1.13;;
21901;SDS011;11115;46.038;14.612;2023-04-24T14:16:16;0.80;;;0.80;;
21901;SDS011;11115;46.038;14.612;2023-04-24T14:18:47;0.63;;;0.63;;
21901;SDS011;11115;46.038;14.612;2023-04-24T14:21:23;1.17;;;0.90;;
21901;SDS011;11115;46.038;14.612;2023-04-24T14:23:58;0.80;;;0.60;;
21901;SDS011;11115;46.038;14.612;2023-04-24T14:29:17;0.77;;;0.70;;
21901;SDS011;11115;46.038;14.612;2023-04-24T14:31:47;1.07;;;0.57;;
21901;SDS011;11115;46.038;14.612;2023-04-24T14:34:22;3.17;;;0.77;;
21901;SDS011;11115;46.038;14.612;2023-04-24T14:37:00;2.07;;;1.30;;
21901;SDS011;11115;46.038;14.612;2023-04-24T14:39:47;2.57;;;1.57;;
21901;SDS011;11115;46.038;14.612;2023-04-24T14:42:47;8.00;;;1.00;;
21901;SDS011;11115;46.038;14.612;2023-04-24T14:45:20;7.83;;;1.20;;
21901;SDS011;11115;46.038;14.612;2023-04-24T14:47:55;1.00;;;0.60;;
21901;SDS011;11115;46.038;14.612;2023-04-24T14:50:27;1.30;;;1.20;;
21901;SDS011;11115;46.038;14.612;2023-04-24T14:52:59;0.95;;;0.65;;
21901;SDS011;11115;46.038;14.612;2023-04-24T14:55:30;2.30;;;0.70;;
21901;SDS011;11115;46.038;14.612;2023-04-24T14:58:06;3.80;;;1.77;;
21901;SDS011;11115;46.038;14.612;2023-04-24T15:00:40;1.63;;;1.33;;
21901;SDS011;11115;46.038;14.612;2023-04-24T15:03:18;1.97;;;1.20;;
21901;SDS011;11115;46.038;14.612;2023-04-24T15:05:55;3.93;;;1.60;;
21901;SDS011;11115;46.038;14.612;2023-04-24T15:08:35;1.10;;;0.90;;
21901;SDS011;11115;46.038;14.612;2023-04-24T15:11:06;2.38;;;1.20;;
21901;SDS011;11115;46.038;14.612;2023-04-24T15:13:36;2.77;;;1.20;;
21901;SDS011;11115;46.038;14.612;2023-04-24T15:16:06;5.97;;;1.77;;
21901;SDS011;11115;46.038;14.612;2023-04-24T15:18:36;1.50;;;1.40;;
21901;SDS011;11115;46.038;14.612;2023-04-24T15:21:08;2.63;;;1.20;;
21901;SDS011;11115;46.038;14.612;2023-04-24T15:23:53;2.10;;;1.03;;
21901;SDS011;11115;46.038;14.612;2023-04-24T15:26:28;1.73;;;0.70;;
21901;SDS011;11115;46.038;14.612;2023-04-24T15:29:14;2.97;;;1.10;;
21901;SDS011;11115;46.038;14.612;2023-04-24T15:31:50;2.27;;;1.03;;
21901;SDS011;11115;46.038;14.612;2023-04-24T15:34:31;1.80;;;1.10;;
21901;SDS011;11115;46.038;14.612;2023-04-24T15:37:01;1.77;;;0.82;;
21901;SDS011;11115;46.038;14.612;2023-04-24T15:39:33;1.73;;;1.07;;
21901;SDS011;11115;46.038;14.612;2023-04-24T15:42:04;1.23;;;1.00;;
21901;SDS011;11115;46.038;14.612;2023-04-24T15:44:44;1.60;;;1.00;;
21901;SDS011;11115;46.038;14.612;2023-04-24T15:47:15;4.07;;;1.10;;
21901;SDS011;11115;46.038;14.612;2023-04-24T15:50:02;0.70;;;0.60;;
21901;SDS011;11115;46.038;14.612;2023-04-24T15:52:42;2.93;;;1.37;;
21901;SDS011;11115;46.038;14.612;2023-04-24T15:55:27;2.50;;;0.70;;
21901;SDS011;11115;46.038;14.612;2023-04-24T15:58:07;3.43;;;0.70;;
21901;SDS011;11115;46.038;14.612;2023-04-24T16:00:40;1.90;;;0.90;;
21901;SDS011;11115;46.038;14.612;2023-04-24T16:03:18;0.93;;;0.60;;